Allemand, Louisiana
Current Conditions -  °F | °C
As of 7:47 AM on Thursday 29 Jan 2015 (Local Time) from KHUM Reporting Station
Clear Clear  
Wind Chill: 54°   Ceiling: Unl
Heat Index: 54°   Visibility: 7mi
Dew Point: 54°   Wind: 6mph
Humidity: 100%   Direction: 130°SE
Pressure: 30.23"   Gusts: NA
Location:  29.5867°N, 90.8252°W
Report Text: KHUM 291347Z 13005KT 7SM SKC 12/12 A3023 RMK RY12/30 CLSD ATIS U VA/RY18...MS
Loading
Personal Weather Stations






























Interactive Weather Map New forecast layout! Learn more

10-Day Weather Forecast

Advertisements
Track Severe Weather on mobile